sensor_id;sensor_type;location;lat;lon;timestamp;pressure;altitude;pressure_sealevel;temperature;humidity
68329;BME280;55182;56.864;60.554;2022-09-09T00:00:05;98265.69;;;5.45;100.00
68329;BME280;55182;56.864;60.554;2022-09-09T00:02:31;98264.03;;;5.50;100.00
68329;BME280;55182;56.864;60.554;2022-09-09T00:07:25;98264.25;;;5.59;100.00
68329;BME280;55182;56.864;60.554;2022-09-09T00:10:37;98266.94;;;5.62;100.00
68329;BME280;55182;56.864;60.554;2022-09-09T00:18:45;98263.78;;;5.75;100.00
68329;BME280;55182;56.864;60.554;2022-09-09T00:20:49;98265.59;;;5.79;100.00
68329;BME280;55182;56.864;60.554;2022-09-09T00:23:25;98270.88;;;5.84;100.00
68329;BME280;55182;56.864;60.554;2022-09-09T00:26:14;98263.19;;;5.89;100.00
68329;BME280;55182;56.864;60.554;2022-09-09T00:28:43;98263.34;;;5.95;100.00
68329;BME280;55182;56.864;60.554;2022-09-09T00:31:12;98266.00;;;5.96;100.00
68329;BME280;55182;56.864;60.554;2022-09-09T00:33:38;98261.69;;;5.97;100.00
68329;BME280;55182;56.864;60.554;2022-09-09T00:36:09;98263.44;;;5.98;100.00
68329;BME280;55182;56.864;60.554;2022-09-09T00:38:37;98260.84;;;5.99;100.00
68329;BME280;55182;56.864;60.554;2022-09-09T00:41:44;98258.28;;;6.01;100.00
68329;BME280;55182;56.864;60.554;2022-09-09T00:44:00;98253.13;;;6.04;100.00
68329;BME280;55182;56.864;60.554;2022-09-09T00:46:46;98257.50;;;6.05;100.00
68329;BME280;55182;56.864;60.554;2022-09-09T00:49:35;98260.13;;;6.06;100.00
68329;BME280;55182;56.864;60.554;2022-09-09T00:52:08;98259.31;;;6.09;100.00
68329;BME280;55182;56.864;60.554;2022-09-09T01:00:16;98263.81;;;6.16;100.00
68329;BME280;55182;56.864;60.554;2022-09-09T01:03:27;98261.28;;;6.19;100.00
68329;BME280;55182;56.864;60.554;2022-09-09T01:07:58;98262.28;;;6.26;100.00
68329;BME280;55182;56.864;60.554;2022-09-09T01:10:48;98266.66;;;6.28;100.00
68329;BME280;55182;56.864;60.554;2022-09-09T01:13:13;98261.50;;;6.30;100.00
68329;BME280;55182;56.864;60.554;2022-09-09T01:15:40;98251.94;;;6.30;100.00
68329;BME280;55182;56.864;60.554;2022-09-09T01:18:10;98269.31;;;6.30;100.00
68329;BME280;55182;56.864;60.554;2022-09-09T01:26:04;98264.13;;;6.31;100.00
68329;BME280;55182;56.864;60.554;2022-09-09T01:28:34;98264.13;;;6.31;100.00
68329;BME280;55182;56.864;60.554;2022-09-09T01:31:05;98265.00;;;6.33;100.00
68329;BME280;55182;56.864;60.554;2022-09-09T01:33:39;98262.50;;;6.36;100.00
68329;BME280;55182;56.864;60.554;2022-09-09T01:36:06;98267.69;;;6.36;100.00
68329;BME280;55182;56.864;60.554;2022-09-09T01:38:40;98267.69;;;6.36;100.00
68329;BME280;55182;56.864;60.554;2022-09-09T01:41:06;98269.44;;;6.37;100.00
68329;BME280;55182;56.864;60.554;2022-09-09T01:43:41;98266.00;;;6.40;100.00
68329;BME280;55182;56.864;60.554;2022-09-09T01:46:06;98272.16;;;6.42;100.00
68329;BME280;55182;56.864;60.554;2022-09-09T01:48:34;98273.91;;;6.43;100.00
68329;BME280;55182;56.864;60.554;2022-09-09T01:51:03;98274.78;;;6.44;100.00
68329;BME280;55182;56.864;60.554;2022-09-09T01:53:28;98272.19;;;6.45;100.00
68329;BME280;55182;56.864;60.554;2022-09-09T02:01:09;98277.50;;;6.51;100.00
68329;BME280;55182;56.864;60.554;2022-09-09T02:03:40;98276.69;;;6.52;100.00
68329;BME280;55182;56.864;60.554;2022-09-09T02:06:25;98281.97;;;6.57;100.00
68329;BME280;55182;56.864;60.554;2022-09-09T02:08:57;98283.72;;;6.58;100.00
68329;BME280;55182;56.864;60.554;2022-09-09T02:11:25;98288.97;;;6.59;100.00
68329;BME280;55182;56.864;60.554;2022-09-09T02:14:09;98282.91;;;6.59;100.00
68329;BME280;55182;56.864;60.554;2022-09-09T02:16:56;98282.03;;;6.60;100.00
68329;BME280;55182;56.864;60.554;2022-09-09T02:19:35;98287.28;;;6.61;100.00
68329;BME280;55182;56.864;60.554;2022-09-09T02:22:08;98282.94;;;6.62;100.00
68329;BME280;55182;56.864;60.554;2022-09-09T02:24:35;98289.94;;;6.64;100.00
68329;BME280;55182;56.864;60.554;2022-09-09T02:27:19;98289.13;;;6.67;100.00
68329;BME280;55182;56.864;60.554;2022-09-09T02:29:45;98289.19;;;6.70;100.00
68329;BME280;55182;56.864;60.554;2022-09-09T02:32:11;98294.44;;;6.73;100.00
68329;BME280;55182;56.864;60.554;2022-09-09T02:34:43;98284.97;;;6.77;100.00
68329;BME280;55182;56.864;60.554;2022-09-09T02:37:10;98286.72;;;6.79;100.00
68329;BME280;55182;56.864;60.554;2022-09-09T02:39:38;98296.38;;;6.83;100.00
68329;BME280;55182;56.864;60.554;2022-09-09T02:42:05;98287.75;;;6.87;100.00
68329;BME280;55182;56.864;60.554;2022-09-09T02:44:31;98293.00;;;6.90;100.00
68329;BME280;55182;56.864;60.554;2022-09-09T02:52:06;98293.97;;;6.96;100.00
68329;BME280;55182;56.864;60.554;2022-09-09T02:54:35;98296.59;;;6.96;100.00
68329;BME280;55182;56.864;60.554;2022-09-09T02:59:40;98294.09;;;7.03;100.00
68329;BME280;55182;56.864;60.554;2022-09-09T03:02:06;98303.72;;;7.06;100.00
68329;BME280;55182;56.864;60.554;2022-09-09T03:04:33;98302.00;;;7.08;100.00
68329;BME280;55182;56.864;60.554;2022-09-09T03:06:59;98290.72;;;7.09;100.00
68329;BME280;55182;56.864;60.554;2022-09-09T03:09:25;98297.75;;;7.11;100.00
68329;BME280;55182;56.864;60.554;2022-09-09T03:11:51;98299.56;;;7.15;100.00
68329;BME280;55182;56.864;60.554;2022-09-09T03:14:17;98302.22;;;7.20;100.00
68329;BME280;55182;56.864;60.554;2022-09-09T03:16:43;98305.75;;;7.22;100.00
68329;BME280;55182;56.864;60.554;2022-09-09T03:19:09;98298.78;;;7.21;100.00
68329;BME280;55182;56.864;60.554;2022-09-09T03:21:34;98304.91;;;7.25;100.00
68329;BME280;55182;56.864;60.554;2022-09-09T03:24:00;98305.84;;;7.27;100.00
68329;BME280;55182;56.864;60.554;2022-09-09T03:26:26;98304.09;;;7.27;100.00
68329;BME280;55182;56.864;60.554;2022-09-09T03:28:51;98298.00;;;7.27;100.00
68329;BME280;55182;56.864;60.554;2022-09-09T03:31:19;98305.00;;;7.29;100.00
68329;BME280;55182;56.864;60.554;2022-09-09T03:33:45;98306.78;;;7.32;100.00
68329;BME280;55182;56.864;60.554;2022-09-09T03:36:13;98307.72;;;7.37;100.00
68329;BME280;55182;56.864;60.554;2022-09-09T03:38:39;98311.25;;;7.39;100.00
68329;BME280;55182;56.864;60.554;2022-09-09T03:41:06;98312.97;;;7.38;100.00
68329;BME280;55182;56.864;60.554;2022-09-09T03:43:32;98310.31;;;7.35;100.00
68329;BME280;55182;56.864;60.554;2022-09-09T03:45:57;98311.19;;;7.36;100.00
68329;BME280;55182;56.864;60.554;2022-09-09T03:48:24;98311.19;;;7.36;100.00
68329;BME280;55182;56.864;60.554;2022-09-09T03:50:51;98306.91;;;7.39;100.00
68329;BME280;55182;56.864;60.554;2022-09-09T03:53:17;98313.00;;;7.41;100.00
68329;BME280;55182;56.864;60.554;2022-09-09T03:55:44;98310.44;;;7.43;100.00
68329;BME280;55182;56.864;60.554;2022-09-09T03:58:10;98320.94;;;7.48;100.00
68329;BME280;55182;56.864;60.554;2022-09-09T04:00:35;98318.41;;;7.51;100.00
68329;BME280;55182;56.864;60.554;2022-09-09T04:03:01;98314.13;;;7.56;100.00
68329;BME280;55182;56.864;60.554;2022-09-09T04:05:27;98316.78;;;7.59;100.00
68329;BME280;55182;56.864;60.554;2022-09-09T04:07:52;98320.41;;;7.67;100.00
68329;BME280;55182;56.864;60.554;2022-09-09T04:10:18;98320.50;;;7.73;100.00
68329;BME280;55182;56.864;60.554;2022-09-09T04:12:43;98317.09;;;7.80;100.00
68329;BME280;55182;56.864;60.554;2022-09-09T04:15:09;98312.94;;;7.91;100.00
68329;BME280;55182;56.864;60.554;2022-09-09T04:17:35;98318.25;;;7.99;100.00
68329;BME280;55182;56.864;60.554;2022-09-09T04:20:00;98313.97;;;8.03;100.00
68329;BME280;55182;56.864;60.554;2022-09-09T04:22:26;98316.59;;;8.04;100.00
68329;BME280;55182;56.864;60.554;2022-09-09T04:24:52;98320.91;;;8.01;100.00
68329;BME280;55182;56.864;60.554;2022-09-09T04:27:19;98323.47;;;7.99;100.00
68329;BME280;55182;56.864;60.554;2022-09-09T04:29:45;98320.84;;;7.97;100.00
68329;BME280;55182;56.864;60.554;2022-09-09T04:32:11;98314.72;;;7.95;100.00
68329;BME280;55182;56.864;60.554;2022-09-09T04:34:37;98317.34;;;7.95;100.00
68329;BME280;55182;56.864;60.554;2022-09-09T04:37:03;98314.81;;;8.00;100.00
68329;BME280;55182;56.864;60.554;2022-09-09T04:39:28;98317.47;;;8.05;100.00
68329;BME280;55182;56.864;60.554;2022-09-09T04:41:54;98327.09;;;8.09;100.00
68329;BME280;55182;56.864;60.554;2022-09-09T04:44:21;98328.03;;;8.14;100.00
68329;BME280;55182;56.864;60.554;2022-09-09T04:46:47;98328.03;;;8.14;100.00
68329;BME280;55182;56.864;60.554;2022-09-09T04:49:13;98325.44;;;8.14;100.00
68329;BME280;55182;56.864;60.554;2022-09-09T04:51:38;98335.00;;;8.15;100.00
68329;BME280;55182;56.864;60.554;2022-09-09T04:54:03;98328.09;;;8.17;100.00
68329;BME280;55182;56.864;60.554;2022-09-09T04:56:30;98322.94;;;8.23;100.00
68329;BME280;55182;56.864;60.554;2022-09-09T04:58:57;98332.69;;;8.35;100.00
68329;BME280;55182;56.864;60.554;2022-09-09T05:01:31;98336.34;;;8.47;100.00
68329;BME280;55182;56.864;60.554;2022-09-09T05:04:01;98329.47;;;8.56;99.67
68329;BME280;55182;56.864;60.554;2022-09-09T05:06:27;98334.88;;;8.68;99.63
68329;BME280;55182;56.864;60.554;2022-09-09T05:08:56;98335.78;;;8.71;98.02
68329;BME280;55182;56.864;60.554;2022-09-09T05:11:26;98338.38;;;8.73;97.82
68329;BME280;55182;56.864;60.554;2022-09-09T05:13:54;98339.25;;;8.73;98.07
68329;BME280;55182;56.864;60.554;2022-09-09T05:16:20;98335.81;;;8.74;97.80
68329;BME280;55182;56.864;60.554;2022-09-09T05:18:46;98340.13;;;8.72;97.18
68329;BME280;55182;56.864;60.554;2022-09-09T05:21:12;98338.28;;;8.62;96.54
68329;BME280;55182;56.864;60.554;2022-09-09T05:23:38;98338.09;;;8.48;97.26
68329;BME280;55182;56.864;60.554;2022-09-09T05:26:03;98344.94;;;8.39;97.59
68329;BME280;55182;56.864;60.554;2022-09-09T05:28:29;98343.13;;;8.35;98.66
68329;BME280;55182;56.864;60.554;2022-09-09T05:30:58;98342.38;;;8.43;98.12
68329;BME280;55182;56.864;60.554;2022-09-09T05:33:24;98347.78;;;8.56;98.14
68329;BME280;55182;56.864;60.554;2022-09-09T05:36:06;98340.94;;;8.67;97.83
68329;BME280;55182;56.864;60.554;2022-09-09T05:38:33;98334.97;;;8.75;96.71
68329;BME280;55182;56.864;60.554;2022-09-09T05:40:59;98329.78;;;8.80;95.10
68329;BME280;55182;56.864;60.554;2022-09-09T05:43:25;98328.06;;;8.84;95.51
68329;BME280;55182;56.864;60.554;2022-09-09T05:48:29;98330.66;;;8.82;94.51
68329;BME280;55182;56.864;60.554;2022-09-09T05:50:55;98333.22;;;8.79;94.86
68329;BME280;55182;56.864;60.554;2022-09-09T05:53:21;98339.38;;;8.80;95.24
68329;BME280;55182;56.864;60.554;2022-09-09T05:55:47;98338.56;;;8.88;94.22
68329;BME280;55182;56.864;60.554;2022-09-09T05:58:12;98337.88;;;9.03;93.71
68329;BME280;55182;56.864;60.554;2022-09-09T06:00:38;98331.03;;;9.19;92.58
68329;BME280;55182;56.864;60.554;2022-09-09T06:03:03;98328.56;;;9.31;91.11
68329;BME280;55182;56.864;60.554;2022-09-09T06:05:29;98336.47;;;9.40;90.18
68329;BME280;55182;56.864;60.554;2022-09-09T06:07:55;98327.84;;;9.50;90.53
68329;BME280;55182;56.864;60.554;2022-09-09T06:10:22;98327.91;;;9.56;89.31
68329;BME280;55182;56.864;60.554;2022-09-09T06:12:48;98330.50;;;9.56;89.96
68329;BME280;55182;56.864;60.554;2022-09-09T06:15:13;98323.59;;;9.63;89.67
68329;BME280;55182;56.864;60.554;2022-09-09T06:17:39;98328.91;;;9.71;88.72
68329;BME280;55182;56.864;60.554;2022-09-09T06:20:04;98325.41;;;9.75;87.75
68329;BME280;55182;56.864;60.554;2022-09-09T06:22:31;98328.06;;;9.81;88.94
68329;BME280;55182;56.864;60.554;2022-09-09T06:24:57;98322.91;;;9.87;87.40
68329;BME280;55182;56.864;60.554;2022-09-09T06:27:22;98316.81;;;9.90;86.83
68329;BME280;55182;56.864;60.554;2022-09-09T06:29:48;98322.88;;;9.86;87.75
68329;BME280;55182;56.864;60.554;2022-09-09T06:32:14;98327.91;;;9.56;89.93
68329;BME280;55182;56.864;60.554;2022-09-09T06:34:40;98335.31;;;9.11;93.43
68329;BME280;55182;56.864;60.554;2022-09-09T06:37:05;98333.88;;;8.60;95.93
68329;BME280;55182;56.864;60.554;2022-09-09T06:39:42;98334.34;;;8.30;99.74
68329;BME280;55182;56.864;60.554;2022-09-09T06:42:07;98335.16;;;8.24;100.00
68329;BME280;55182;56.864;60.554;2022-09-09T06:44:48;98333.50;;;8.31;100.00
68329;BME280;55182;56.864;60.554;2022-09-09T06:47:36;98331.91;;;8.40;97.76
68329;BME280;55182;56.864;60.554;2022-09-09T06:50:02;98322.56;;;8.58;97.53
68329;BME280;55182;56.864;60.554;2022-09-09T06:52:31;98320.22;;;8.82;96.16
68329;BME280;55182;56.864;60.554;2022-09-09T06:54:58;98324.00;;;9.09;95.63
68329;BME280;55182;56.864;60.554;2022-09-09T06:57:24;98317.19;;;9.29;92.05
68329;BME280;55182;56.864;60.554;2022-09-09T06:59:50;98313.84;;;9.45;89.18
68329;BME280;55182;56.864;60.554;2022-09-09T07:02:15;98319.09;;;9.45;88.52
68329;BME280;55182;56.864;60.554;2022-09-09T07:04:41;98317.34;;;9.46;90.33
68329;BME280;55182;56.864;60.554;2022-09-09T07:07:06;98326.88;;;9.39;90.35
68329;BME280;55182;56.864;60.554;2022-09-09T07:09:32;98351.13;;;9.23;92.68
68329;BME280;55182;56.864;60.554;2022-09-09T07:11:57;98352.25;;;8.63;96.21
68329;BME280;55182;56.864;60.554;2022-09-09T07:14:23;98350.69;;;7.59;93.84
68329;BME280;55182;56.864;60.554;2022-09-09T07:16:54;98341.81;;;6.52;100.00
68329;BME280;55182;56.864;60.554;2022-09-09T07:19:20;98346.97;;;6.10;100.00
68329;BME280;55182;56.864;60.554;2022-09-09T07:21:49;98349.22;;;5.95;100.00
68329;BME280;55182;56.864;60.554;2022-09-09T07:24:17;98337.03;;;5.92;100.00
68329;BME280;55182;56.864;60.554;2022-09-09T07:26:43;98335.56;;;6.05;100.00
68329;BME280;55182;56.864;60.554;2022-09-09T07:29:10;98335.91;;;6.20;100.00
68329;BME280;55182;56.864;60.554;2022-09-09T07:31:36;98323.16;;;6.32;100.00
68329;BME280;55182;56.864;60.554;2022-09-09T07:34:06;98321.56;;;6.41;100.00
68329;BME280;55182;56.864;60.554;2022-09-09T07:36:36;98330.56;;;6.55;100.00
68329;BME280;55182;56.864;60.554;2022-09-09T07:39:04;98335.88;;;6.61;100.00
68329;BME280;55182;56.864;60.554;2022-09-09T07:41:33;98328.81;;;6.54;100.00
68329;BME280;55182;56.864;60.554;2022-09-09T07:43:59;98326.13;;;6.51;100.00
68329;BME280;55182;56.864;60.554;2022-09-09T07:46:25;98328.81;;;6.54;100.00
68329;BME280;55182;56.864;60.554;2022-09-09T07:48:55;98328.06;;;6.59;100.00
68329;BME280;55182;56.864;60.554;2022-09-09T07:51:26;98318.94;;;6.81;100.00
68329;BME280;55182;56.864;60.554;2022-09-09T07:53:54;98321.97;;;7.06;100.00
68329;BME280;55182;56.864;60.554;2022-09-09T07:56:20;98324.88;;;7.21;100.00
68329;BME280;55182;56.864;60.554;2022-09-09T07:58:46;98319.97;;;7.42;100.00
68329;BME280;55182;56.864;60.554;2022-09-09T08:01:13;98319.31;;;7.54;100.00
68329;BME280;55182;56.864;60.554;2022-09-09T08:03:39;98316.94;;;7.68;100.00
68329;BME280;55182;56.864;60.554;2022-09-09T08:06:05;98312.75;;;7.78;100.00
68329;BME280;55182;56.864;60.554;2022-09-09T08:08:31;98313.84;;;7.95;100.00
68329;BME280;55182;56.864;60.554;2022-09-09T08:11:03;98308.81;;;8.09;100.00
68329;BME280;55182;56.864;60.554;2022-09-09T08:13:29;98316.81;;;8.21;100.00
68329;BME280;55182;56.864;60.554;2022-09-09T08:15:55;98308.25;;;8.31;100.00
68329;BME280;55182;56.864;60.554;2022-09-09T08:18:20;98310.22;;;8.46;100.00
68329;BME280;55182;56.864;60.554;2022-09-09T08:20:46;98310.34;;;8.57;99.79
68329;BME280;55182;56.864;60.554;2022-09-09T08:23:11;98313.13;;;8.72;100.00
68329;BME280;55182;56.864;60.554;2022-09-09T08:25:37;98315.03;;;8.88;100.00
68329;BME280;55182;56.864;60.554;2022-09-09T08:28:02;98322.16;;;9.01;98.06
68329;BME280;55182;56.864;60.554;2022-09-09T08:30:28;98337.84;;;9.01;98.07
68329;BME280;55182;56.864;60.554;2022-09-09T08:32:53;98339.47;;;8.90;97.32
68329;BME280;55182;56.864;60.554;2022-09-09T08:35:19;98340.88;;;8.61;96.23
68329;BME280;55182;56.864;60.554;2022-09-09T08:37:46;98340.16;;;8.09;99.75
68329;BME280;55182;56.864;60.554;2022-09-09T08:40:16;98342.88;;;7.59;100.00
68329;BME280;55182;56.864;60.554;2022-09-09T08:42:47;98348.16;;;7.12;100.00
68329;BME280;55182;56.864;60.554;2022-09-09T08:45:18;98344.03;;;6.78;100.00
68329;BME280;55182;56.864;60.554;2022-09-09T08:53:02;98343.97;;;6.32;100.00
68329;BME280;55182;56.864;60.554;2022-09-09T08:58:04;98338.00;;;6.36;100.00
68329;BME280;55182;56.864;60.554;2022-09-09T09:03:28;98341.97;;;6.61;100.00
68329;BME280;55182;56.864;60.554;2022-09-09T09:06:01;98338.97;;;6.85;100.00
68329;BME280;55182;56.864;60.554;2022-09-09T09:08:31;98336.84;;;7.10;100.00
68329;BME280;55182;56.864;60.554;2022-09-09T09:11:01;98340.53;;;7.24;100.00
68329;BME280;55182;56.864;60.554;2022-09-09T09:15:58;98336.25;;;7.79;100.00
68329;BME280;55182;56.864;60.554;2022-09-09T09:18:26;98335.72;;;8.05;100.00
68329;BME280;55182;56.864;60.554;2022-09-09T09:23:38;98350.94;;;8.33;100.00
68329;BME280;55182;56.864;60.554;2022-09-09T09:26:06;98340.56;;;8.36;100.00
68329;BME280;55182;56.864;60.554;2022-09-09T09:28:35;98343.41;;;8.53;100.00
68329;BME280;55182;56.864;60.554;2022-09-09T09:31:09;98342.66;;;8.65;100.00
68329;BME280;55182;56.864;60.554;2022-09-09T09:36:08;98340.91;;;8.64;98.12
68329;BME280;55182;56.864;60.554;2022-09-09T09:38:35;98337.66;;;8.83;99.50
68329;BME280;55182;56.864;60.554;2022-09-09T09:41:01;98343.13;;;9.05;98.89
68329;BME280;55182;56.864;60.554;2022-09-09T09:43:29;98333.59;;;9.13;96.35
68329;BME280;55182;56.864;60.554;2022-09-09T09:45:56;98336.19;;;9.10;97.11
68329;BME280;55182;56.864;60.554;2022-09-09T09:48:22;98327.59;;;9.23;96.91
68329;BME280;55182;56.864;60.554;2022-09-09T09:51:01;98337.50;;;9.54;96.54
68329;BME280;55182;56.864;60.554;2022-09-09T09:53:31;98331.56;;;9.77;96.23
68329;BME280;55182;56.864;60.554;2022-09-09T09:56:02;98335.13;;;9.88;95.54
68329;BME280;55182;56.864;60.554;2022-09-09T09:58:33;98333.47;;;9.99;96.22
68329;BME280;55182;56.864;60.554;2022-09-09T10:00:59;98326.59;;;10.18;93.10
68329;BME280;55182;56.864;60.554;2022-09-09T10:03:31;98329.34;;;10.33;93.59
68329;BME280;55182;56.864;60.554;2022-09-09T10:05:57;98324.97;;;10.37;90.68
68329;BME280;55182;56.864;60.554;2022-09-09T10:08:24;98326.75;;;10.38;95.79
68329;BME280;55182;56.864;60.554;2022-09-09T10:13:18;98317.13;;;10.39;93.66
68329;BME280;55182;56.864;60.554;2022-09-09T10:15:52;98311.00;;;10.38;90.88
68329;BME280;55182;56.864;60.554;2022-09-09T10:29:32;98326.25;;;9.65;80.71
68329;BME280;55182;56.864;60.554;2022-09-09T10:32:13;98319.19;;;9.57;83.45
68329;BME280;55182;56.864;60.554;2022-09-09T10:34:52;98314.81;;;9.53;85.21
68329;BME280;55182;56.864;60.554;2022-09-09T10:40:19;98329.63;;;9.54;79.98
68329;BME280;55182;56.864;60.554;2022-09-09T10:42:45;98324.41;;;9.54;80.58
68329;BME280;55182;56.864;60.554;2022-09-09T10:47:46;98331.53;;;9.71;82.54
68329;BME280;55182;56.864;60.554;2022-09-09T10:53:19;98317.72;;;9.96;83.43
68329;BME280;55182;56.864;60.554;2022-09-09T10:55:53;98323.09;;;10.18;82.00
68329;BME280;55182;56.864;60.554;2022-09-09T10:58:42;98324.06;;;10.32;79.84
68329;BME280;55182;56.864;60.554;2022-09-09T11:01:12;98318.00;;;10.39;79.83
68329;BME280;55182;56.864;60.554;2022-09-09T11:03:39;98318.03;;;10.45;80.36
68329;BME280;55182;56.864;60.554;2022-09-09T11:06:06;98315.44;;;10.51;80.04
68329;BME280;55182;56.864;60.554;2022-09-09T11:08:35;98322.41;;;10.54;79.20
68329;BME280;55182;56.864;60.554;2022-09-09T11:16:25;98312.84;;;10.57;74.50
68329;BME280;55182;56.864;60.554;2022-09-09T11:18:48;98312.81;;;10.54;74.73
68329;BME280;55182;56.864;60.554;2022-09-09T11:21:19;98316.31;;;10.50;76.15
68329;BME280;55182;56.864;60.554;2022-09-09T11:23:49;98317.19;;;10.54;77.09
68329;BME280;55182;56.864;60.554;2022-09-09T11:26:28;98322.44;;;10.60;76.98
68329;BME280;55182;56.864;60.554;2022-09-09T11:29:03;98318.97;;;10.64;76.53
68329;BME280;55182;56.864;60.554;2022-09-09T11:34:02;98332.06;;;10.59;78.13
68329;BME280;55182;56.864;60.554;2022-09-09T11:36:45;98333.78;;;10.53;76.53
68329;BME280;55182;56.864;60.554;2022-09-09T11:39:24;98345.09;;;10.41;76.37
68329;BME280;55182;56.864;60.554;2022-09-09T11:44:40;98359.84;;;10.24;77.09
68329;BME280;55182;56.864;60.554;2022-09-09T11:50:22;98336.97;;;10.01;77.79
68329;BME280;55182;56.864;60.554;2022-09-09T11:53:03;98340.44;;;10.00;77.78
68329;BME280;55182;56.864;60.554;2022-09-09T11:55:29;98328.19;;;9.96;76.38
68329;BME280;55182;56.864;60.554;2022-09-09T12:00:27;98329.16;;;10.11;76.56
68329;BME280;55182;56.864;60.554;2022-09-09T12:02:56;98333.56;;;10.21;76.66
68329;BME280;55182;56.864;60.554;2022-09-09T12:05:21;98340.69;;;10.35;76.76
68329;BME280;55182;56.864;60.554;2022-09-09T12:07:50;98324.13;;;10.49;76.00
68329;BME280;55182;56.864;60.554;2022-09-09T12:10:26;98318.91;;;10.55;75.71
68329;BME280;55182;56.864;60.554;2022-09-09T12:12:52;98315.56;;;10.90;71.48
68329;BME280;55182;56.864;60.554;2022-09-09T12:15:19;98327.91;;;11.50;69.28
68329;BME280;55182;56.864;60.554;2022-09-09T12:17:45;98318.25;;;12.26;65.44
68329;BME280;55182;56.864;60.554;2022-09-09T12:20:16;98322.34;;;12.95;63.17
68329;BME280;55182;56.864;60.554;2022-09-09T12:25:26;98317.25;;;13.94;58.68
68329;BME280;55182;56.864;60.554;2022-09-09T12:30:48;98309.91;;;13.25;60.69
68329;BME280;55182;56.864;60.554;2022-09-09T12:33:17;98307.28;;;13.23;61.40
68329;BME280;55182;56.864;60.554;2022-09-09T12:35:43;98312.41;;;13.45;60.50
68329;BME280;55182;56.864;60.554;2022-09-09T12:38:12;98306.13;;;13.63;59.97
68329;BME280;55182;56.864;60.554;2022-09-09T12:40:39;98317.53;;;13.60;60.75
68329;BME280;55182;56.864;60.554;2022-09-09T12:43:18;98310.31;;;13.84;60.10
68329;BME280;55182;56.864;60.554;2022-09-09T12:45:44;98308.38;;;14.04;59.53
68329;BME280;55182;56.864;60.554;2022-09-09T12:48:09;98303.78;;;14.21;59.05
68329;BME280;55182;56.864;60.554;2022-09-09T12:50:43;98303.94;;;14.08;60.23
68329;BME280;55182;56.864;60.554;2022-09-09T12:53:11;98305.34;;;13.47;61.95
68329;BME280;55182;56.864;60.554;2022-09-09T12:55:38;98305.75;;;12.78;64.37
68329;BME280;55182;56.864;60.554;2022-09-09T12:58:04;98307.78;;;12.04;67.08
68329;BME280;55182;56.864;60.554;2022-09-09T13:00:32;98314.78;;;11.44;70.41
68329;BME280;55182;56.864;60.554;2022-09-09T13:02:59;98315.56;;;10.86;73.80
68329;BME280;55182;56.864;60.554;2022-09-09T13:05:43;98301.41;;;10.43;76.80
68329;BME280;55182;56.864;60.554;2022-09-09T13:08:09;98305.63;;;10.17;78.49
68329;BME280;55182;56.864;60.554;2022-09-09T13:10:37;98305.50;;;9.97;78.70
68329;BME280;55182;56.864;60.554;2022-09-09T13:13:11;98311.53;;;9.85;79.30
68329;BME280;55182;56.864;60.554;2022-09-09T13:15:38;98316.00;;;9.98;77.08
68329;BME280;55182;56.864;60.554;2022-09-09T13:18:05;98307.34;;;10.15;77.27
68329;BME280;55182;56.864;60.554;2022-09-09T13:20:31;98314.47;;;10.28;74.81
68329;BME280;55182;56.864;60.554;2022-09-09T13:22:56;98311.84;;;10.31;74.23
68329;BME280;55182;56.864;60.554;2022-09-09T13:25:23;98317.94;;;10.28;74.64
68329;BME280;55182;56.864;60.554;2022-09-09T13:27:53;98314.47;;;10.28;75.20
68329;BME280;55182;56.864;60.554;2022-09-09T13:30:37;98308.34;;;10.29;75.91
68329;BME280;55182;56.864;60.554;2022-09-09T13:35:35;98305.69;;;10.26;74.04
68329;BME280;55182;56.864;60.554;2022-09-09T13:38:07;98311.72;;;10.13;74.79
68329;BME280;55182;56.864;60.554;2022-09-09T13:40:33;98320.34;;;9.98;76.10
68329;BME280;55182;56.864;60.554;2022-09-09T13:42:59;98311.50;;;9.79;77.16
68329;BME280;55182;56.864;60.554;2022-09-09T13:45:25;98316.63;;;9.65;78.23
68329;BME280;55182;56.864;60.554;2022-09-09T13:47:51;98309.53;;;9.50;79.65
68329;BME280;55182;56.864;60.554;2022-09-09T13:50:20;98312.06;;;9.38;80.99
68329;BME280;55182;56.864;60.554;2022-09-09T13:52:45;98307.59;;;9.25;81.63
68329;BME280;55182;56.864;60.554;2022-09-09T13:55:11;98310.97;;;9.16;82.31
68329;BME280;55182;56.864;60.554;2022-09-09T13:57:36;98308.25;;;9.06;83.59
68329;BME280;55182;56.864;60.554;2022-09-09T14:00:02;98322.13;;;8.98;85.28
68329;BME280;55182;56.864;60.554;2022-09-09T14:02:29;98324.63;;;8.86;87.04
68329;BME280;55182;56.864;60.554;2022-09-09T14:04:54;98325.38;;;8.79;87.17
68329;BME280;55182;56.864;60.554;2022-09-09T14:07:20;98320.09;;;8.70;88.11
68329;BME280;55182;56.864;60.554;2022-09-09T14:09:45;98324.31;;;8.62;89.67
68329;BME280;55182;56.864;60.554;2022-09-09T14:12:11;98316.41;;;8.56;89.57
68329;BME280;55182;56.864;60.554;2022-09-09T14:14:36;98327.72;;;8.53;90.33
68329;BME280;55182;56.864;60.554;2022-09-09T14:17:02;98329.41;;;8.49;91.13
68329;BME280;55182;56.864;60.554;2022-09-09T14:19:27;98324.97;;;8.42;91.53
68329;BME280;55182;56.864;60.554;2022-09-09T14:21:53;98326.53;;;8.31;92.35
68329;BME280;55182;56.864;60.554;2022-09-09T14:24:18;98325.53;;;8.21;92.87
68329;BME280;55182;56.864;60.554;2022-09-09T14:26:43;98322.81;;;8.14;93.67
68329;BME280;55182;56.864;60.554;2022-09-09T14:29:09;98332.31;;;8.09;94.40
68329;BME280;55182;56.864;60.554;2022-09-09T14:31:34;98332.28;;;8.06;94.96
68329;BME280;55182;56.864;60.554;2022-09-09T14:34:00;98333.13;;;8.05;95.03
68329;BME280;55182;56.864;60.554;2022-09-09T14:36:25;98332.25;;;8.04;95.16
68329;BME280;55182;56.864;60.554;2022-09-09T14:38:50;98330.47;;;8.02;95.26
68329;BME280;55182;56.864;60.554;2022-09-09T14:41:17;98333.91;;;7.97;95.94